Terminal Aerodrome Forecast
Issued by NWS Albany, NY

Home | Current Version | Previous Version | Text Only | Print | Product List | Glossary On
Versions: 1 2 3 4 5 6 7 8 9 10 11 12 13 14 15 16 17 18 19 20 21 22 23 24 25
000
FTUS41 KALY 292341
TAFGFL
TAF
KGFL 292341Z 3000/3024 23004KT P6SM BKN050
     FM300200 VRB03KT P6SM SCT050
     FM300600 00000KT 3SM BR SCT250
     FM301000 00000KT 6SM BR SCT100 BKN250
     FM301300 VRB03KT P6SM BKN100
     FM301600 16005KT P6SM SCT050 BKN080
     FM301900 17007KT P6SM VCSH BKN040 OVC080=

USA.gov is the U.S. government's official web portal to all federal, state and local government web resources and services.